Time;durP1;ratioP1;P1;durP2;ratioP2;P2;SDS_P1;SDS_P2;PMS_P1;PMS_P2;Temp;Humidity;BMP_temperature;BMP_pressure;BME280_temperature;BME280_humidity;BME280_pressure;Samples;Min_cycle;Max_cycle;Signal;HPM_P1;HPM_P2
2022/02/10 00:13:54;;;;;;;78.90;15.57;;;;;;;;;;5094964;28;20219;-68
2022/02/10 00:19:37;;;;;;;94.88;13.18;;;;;;;;;;5032406;28;20206;-69
2022/02/10 00:22:13;;;;;;;75.28;14.68;;;;;;;;;;5030407;28;20748;-69
2022/02/10 00:35:57;;;;;;;82.25;14.70;;;;;;;;;;5033051;28;20197;-68
2022/02/10 00:38:31;;;;;;;78.05;13.75;;;;;;;;;;5032231;28;20217;-69
2022/02/10 00:41:05;;;;;;;77.82;14.25;;;;;;;;;;5032497;28;20249;-69
2022/02/10 00:43:37;;;;;;;73.68;13.48;;;;;;;;;;5032307;28;20222;-69
2022/02/10 00:46:06;;;;;;;77.30;13.15;;;;;;;;;;5032289;28;20234;-69
2022/02/10 00:48:36;;;;;;;77.80;13.00;;;;;;;;;;5031791;28;20308;-69
2022/02/10 00:51:12;;;;;;;71.57;10.73;;;;;;;;;;5031969;28;20253;-69
2022/02/10 00:53:45;;;;;;;69.85;10.85;;;;;;;;;;5032456;28;20234;-69
2022/02/10 00:56:17;;;;;;;71.75;9.25;;;;;;;;;;5041280;28;20216;-69
2022/02/10 00:58:56;;;;;;;66.90;9.98;;;;;;;;;;5074418;28;20695;-69
2022/02/10 01:07:06;;;;;;;70.40;10.35;;;;;;;;;;5011843;28;20207;-69
2022/02/10 01:12:32;;;;;;;75.70;14.05;;;;;;;;;;5074488;28;20282;-68
2022/02/10 01:31:46;;;;;;;70.60;9.35;;;;;;;;;;5073482;28;20576;-67
2022/02/10 01:34:15;;;;;;;71.53;9.48;;;;;;;;;;5073533;28;20605;-68
2022/02/10 01:36:44;;;;;;;69.28;9.90;;;;;;;;;;5074385;28;20673;-68
2022/02/10 01:39:19;;;;;;;68.75;10.18;;;;;;;;;;5073517;28;20580;-67
2022/02/10 01:42:28;;;;;;;67.15;9.40;;;;;;;;;;5073856;28;20209;-70
2022/02/10 02:04:35;;;;;;;64.53;7.40;;;;;;;;;;5093196;28;20216;-68
2022/02/10 02:07:07;;;;;;;64.60;7.50;;;;;;;;;;5093120;28;20253;-68
2022/02/10 02:09:47;;;;;;;65.28;7.82;;;;;;;;;;5092498;28;20204;-68
2022/02/10 02:12:17;;;;;;;63.92;7.00;;;;;;;;;;5092600;28;20735;-67
2022/02/10 02:14:49;;;;;;;66.75;8.13;;;;;;;;;;5092430;28;20228;-68
2022/02/10 02:17:21;;;;;;;62.72;7.30;;;;;;;;;;5092499;28;20214;-67
2022/02/10 02:19:50;;;;;;;62.70;7.50;;;;;;;;;;5090210;28;20630;-68
2022/02/10 02:22:24;;;;;;;67.15;8.27;;;;;;;;;;5092487;28;20692;-68
2022/02/10 02:24:59;;;;;;;62.35;6.93;;;;;;;;;;5092589;28;20224;-68
2022/02/10 02:27:48;;;;;;;62.40;6.90;;;;;;;;;;5092577;28;20212;-68
2022/02/10 02:30:27;;;;;;;65.57;7.43;;;;;;;;;;5090825;28;20213;-68
2022/02/10 02:33:34;;;;;;;64.53;7.93;;;;;;;;;;5092468;28;20204;-68
2022/02/10 02:39:22;;;;;;;62.15;7.05;;;;;;;;;;5092298;28;20675;-68
2022/02/10 03:04:40;;;;;;;67.43;7.93;;;;;;;;;;5090604;28;20223;-69
2022/02/10 03:07:12;;;;;;;63.65;7.35;;;;;;;;;;5091885;28;20225;-69
2022/02/10 03:09:53;;;;;;;64.10;7.82;;;;;;;;;;5091974;28;20562;-69
2022/02/10 03:12:29;;;;;;;62.70;7.50;;;;;;;;;;5091596;28;20210;-69
2022/02/10 03:15:03;;;;;;;63.97;7.68;;;;;;;;;;5091452;28;20228;-67
2022/02/10 03:17:56;;;;;;;62.40;6.82;;;;;;;;;;5091745;28;20704;-69
2022/02/10 03:20:39;;;;;;;64.32;7.07;;;;;;;;;;5092098;28;20204;-70
2022/02/10 04:02:53;;;;;;;64.97;7.70;;;;;;;;;;5091518;28;20234;-69
2022/02/10 04:08:28;;;;;;;64.88;7.97;;;;;;;;;;5060062;28;20677;-69
2022/02/10 04:11:16;;;;;;;62.45;7.15;;;;;;;;;;5071292;28;20643;-69
2022/02/10 04:13:58;;;;;;;63.17;7.07;;;;;;;;;;5070897;28;20415;-69
2022/02/10 04:16:37;;;;;;;63.05;7.22;;;;;;;;;;5071152;28;20201;-69
2022/02/10 04:19:44;;;;;;;63.78;7.70;;;;;;;;;;5070923;28;20201;-69
2022/02/10 04:22:23;;;;;;;62.58;6.53;;;;;;;;;;5070977;28;20300;-69
2022/02/10 04:28:00;;;;;;;64.32;6.97;;;;;;;;;;5074028;28;20209;-69
2022/02/10 04:30:51;;;;;;;63.50;7.85;;;;;;;;;;5074657;28;20213;-69
2022/02/10 04:39:41;;;;;;;65.95;7.75;;;;;;;;;;5073551;28;20231;-69
2022/02/10 04:56:04;;;;;;;65.38;7.60;;;;;;;;;;5070226;28;20201;-69
2022/02/10 04:58:56;;;;;;;64.20;7.55;;;;;;;;;;5074250;28;20235;-69
2022/02/10 05:01:39;;;;;;;62.92;7.50;;;;;;;;;;5074215;28;20209;-69
2022/02/10 05:21:27;;;;;;;70.78;8.40;;;;;;;;;;5067601;28;20200;-68
2022/02/10 05:24:12;;;;;;;66.45;8.40;;;;;;;;;;5109382;28;20232;-68
2022/02/10 05:32:32;;;;;;;64.25;7.85;;;;;;;;;;5093610;28;20195;-69
2022/02/10 05:35:19;;;;;;;62.63;6.40;;;;;;;;;;5093216;28;20232;-69
2022/02/10 05:37:52;;;;;;;63.33;7.22;;;;;;;;;;5093414;28;20664;-69
2022/02/10 05:40:46;;;;;;;65.13;7.55;;;;;;;;;;5091801;28;20257;-69
2022/02/10 05:46:09;;;;;;;62.17;6.75;;;;;;;;;;5089663;28;20357;-69
2022/02/10 05:52:16;;;;;;;64.20;6.68;;;;;;;;;;5067325;28;20200;-69
2022/02/10 05:54:56;;;;;;;65.47;8.10;;;;;;;;;;5093299;28;20247;-69
2022/02/10 05:57:43;;;;;;;65.80;8.05;;;;;;;;;;5092950;28;20207;-69
2022/02/10 06:53:53;;;;;;;68.10;7.90;;;;;;;;;;5081536;28;20221;-70
2022/02/10 07:08:01;;;;;;;75.53;10.27;;;;;;;;;;5091490;28;20323;-69
2022/02/10 07:10:53;;;;;;;66.57;8.35;;;;;;;;;;5092186;28;20207;-69
2022/02/10 07:50:05;;;;;;;73.93;8.50;;;;;;;;;;5009448;28;20198;-70
2022/02/10 07:55:41;;;;;;;65.47;8.43;;;;;;;;;;5007268;28;20245;-70
2022/02/10 07:58:40;;;;;;;64.60;7.68;;;;;;;;;;5009878;28;20207;-70
2022/02/10 08:04:41;;;;;;;64.75;8.13;;;;;;;;;;5013334;28;20226;-70
2022/02/10 08:57:37;;;;;;;60.97;4.68;;;;;;;;;;5073116;28;20690;-70
2022/02/10 09:00:37;;;;;;;61.20;4.68;;;;;;;;;;5074076;28;20666;-70
2022/02/10 09:03:19;;;;;;;60.83;5.30;;;;;;;;;;5073713;28;20202;-70
2022/02/10 09:06:04;;;;;;;72.97;5.67;;;;;;;;;;5073752;28;20448;-70
2022/02/10 09:57:30;;;;;;;61.50;5.37;;;;;;;;;;5150063;27;20427;-70
2022/02/10 10:00:12;;;;;;;62.50;4.33;;;;;;;;;;5148744;27;20882;-71
2022/02/10 10:02:48;;;;;;;62.23;4.40;;;;;;;;;;5149537;27;20444;-70
2022/02/10 10:05:28;;;;;;;65.20;4.50;;;;;;;;;;5149660;27;20545;-70
2022/02/10 10:13:38;;;;;;;60.47;4.50;;;;;;;;;;5144098;27;20479;-70
2022/02/10 10:19:10;;;;;;;66.10;5.90;;;;;;;;;;5144769;27;20445;-70
2022/02/10 10:21:48;;;;;;;65.53;5.77;;;;;;;;;;5148603;27;21017;-70
2022/02/10 10:44:49;;;;;;;68.13;5.10;;;;;;;;;;5135349;27;20439;-70
2022/02/10 10:50:10;;;;;;;62.03;5.60;;;;;;;;;;5134019;27;20443;-71
2022/02/10 10:53:07;;;;;;;63.80;5.30;;;;;;;;;;5135116;27;20544;-70
2022/02/10 10:55:48;;;;;;;61.47;4.40;;;;;;;;;;5135692;27;20810;-71
2022/02/10 10:58:28;;;;;;;63.13;5.00;;;;;;;;;;5134600;27;20464;-70
2022/02/10 11:38:18;;;;;;;61.70;5.57;;;;;;;;;;5069767;28;20426;-71
2022/02/10 11:41:21;;;;;;;65.90;6.70;;;;;;;;;;5070896;28;20455;-71
2022/02/10 11:44:05;;;;;;;64.50;6.20;;;;;;;;;;5070845;28;20459;-70
2022/02/10 11:47:27;;;;;;;64.97;6.73;;;;;;;;;;5096242;27;20480;-70
2022/02/10 12:31:14;;;;;;;70.80;9.67;;;;;;;;;;5066430;28;20427;-72
2022/02/10 12:43:24;;;;;;;68.93;7.87;;;;;;;;;;5005384;28;20470;-71
2022/02/10 13:48:39;;;;;;;65.40;8.90;;;;;;;;;;5114484;28;20469;-72
2022/02/10 14:13:54;;;;;;;66.40;8.33;;;;;;;;;;5079721;28;20463;-72
2022/02/10 14:16:39;;;;;;;69.13;8.27;;;;;;;;;;5113721;28;20453;-72
2022/02/10 14:19:17;;;;;;;64.30;7.40;;;;;;;;;;5113542;28;20947;-72
2022/02/10 14:22:01;;;;;;;65.87;8.10;;;;;;;;;;5114074;28;20436;-72
2022/02/10 14:27:23;;;;;;;65.27;8.10;;;;;;;;;;5112703;28;20480;-72
2022/02/10 14:29:53;;;;;;;70.93;8.40;;;;;;;;;;5113860;28;20811;-72
2022/02/10 14:32:25;;;;;;;67.23;8.97;;;;;;;;;;5113302;28;20443;-72
2022/02/10 14:35:06;;;;;;;68.30;8.93;;;;;;;;;;5114138;28;20463;-72
2022/02/10 14:37:54;;;;;;;63.43;7.17;;;;;;;;;;5133146;28;20438;-72
2022/02/10 14:40:45;;;;;;;67.10;7.93;;;;;;;;;;5135080;28;20439;-72
2022/02/10 15:51:10;;;;;;;66.97;7.47;;;;;;;;;;5111862;28;20427;-73
2022/02/10 16:18:59;;;;;;;66.95;8.23;;;;;;;;;;5089222;28;20623;-72
2022/02/10 16:21:38;;;;;;;67.97;9.03;;;;;;;;;;5089342;28;20674;-72
2022/02/10 16:24:15;;;;;;;69.10;9.03;;;;;;;;;;5089249;28;21009;-72
2022/02/10 16:26:54;;;;;;;66.47;8.30;;;;;;;;;;5089380;28;20809;-72
2022/02/10 16:29:22;;;;;;;66.87;7.60;;;;;;;;;;5089102;28;20498;-72
2022/02/10 16:31:49;;;;;;;66.20;7.30;;;;;;;;;;5089128;28;20482;-72
2022/02/10 16:34:18;;;;;;;67.68;8.25;;;;;;;;;;5089213;28;20473;-72
2022/02/10 16:36:46;;;;;;;65.57;8.53;;;;;;;;;;5089166;28;20208;-72
2022/02/10 16:39:16;;;;;;;66.27;7.33;;;;;;;;;;5089001;28;20454;-72
2022/02/10 16:41:43;;;;;;;76.32;9.23;;;;;;;;;;5089116;28;20444;-72
2022/02/10 16:44:10;;;;;;;65.43;7.78;;;;;;;;;;5088748;28;20293;-72
2022/02/10 16:46:37;;;;;;;67.17;7.83;;;;;;;;;;5089158;28;20581;-72
2022/02/10 16:49:05;;;;;;;68.03;8.13;;;;;;;;;;5088736;28;20475;-73
2022/02/10 16:51:35;;;;;;;68.80;9.37;;;;;;;;;;5088905;28;20212;-72
2022/02/10 16:54:08;;;;;;;68.32;8.43;;;;;;;;;;5091630;28;20495;-72
2022/02/10 16:56:46;;;;;;;66.30;8.33;;;;;;;;;;5092966;28;20202;-72
2022/02/10 16:59:27;;;;;;;67.03;8.63;;;;;;;;;;5093808;28;20506;-72
2022/02/10 17:18:51;;;;;;;63.13;6.70;;;;;;;;;;5094274;28;20473;-72
2022/02/10 17:21:34;;;;;;;63.17;5.73;;;;;;;;;;5093890;28;21006;-73
2022/02/10 17:27:02;;;;;;;62.30;6.47;;;;;;;;;;5100506;28;20428;-72
2022/02/10 17:29:41;;;;;;;62.70;6.20;;;;;;;;;;5092215;28;20458;-72
2022/02/10 17:32:16;;;;;;;63.92;6.72;;;;;;;;;;5085492;28;20444;-72
2022/02/10 17:43:53;;;;;;;62.55;6.82;;;;;;;;;;5093035;28;20443;-72
2022/02/10 17:46:06;;;;;;;62.70;5.43;;;;;;;;;;5092571;28;20202;-71
2022/02/10 17:51:38;;;;;;;60.60;5.33;;;;;;;;;;5092139;28;20424;-71
2022/02/10 17:54:05;;;;;;;63.07;6.23;;;;;;;;;;5090719;28;20467;-71
2022/02/10 17:56:34;;;;;;;68.60;6.40;;;;;;;;;;5091179;28;20918;-71
2022/02/10 17:59:01;;;;;;;63.60;7.00;;;;;;;;;;5089528;28;20517;-71
2022/02/10 18:01:29;;;;;;;64.87;6.13;;;;;;;;;;5088475;28;20469;-72
2022/02/10 18:03:56;;;;;;;69.10;9.07;;;;;;;;;;5080465;28;20473;-71
2022/02/10 18:06:25;;;;;;;65.93;8.67;;;;;;;;;;5074006;28;20535;-72
2022/02/10 18:09:09;;;;;;;67.40;7.50;;;;;;;;;;5073852;28;20452;-72
2022/02/10 18:14:31;;;;;;;62.67;6.70;;;;;;;;;;5034873;28;20964;-72
2022/02/10 18:17:06;;;;;;;69.30;9.20;;;;;;;;;;5073614;28;20461;-72
2022/02/10 18:19:38;;;;;;;68.37;9.10;;;;;;;;;;5072822;28;20815;-72
2022/02/10 18:24:59;;;;;;;68.67;8.00;;;;;;;;;;5069181;28;20966;-72
2022/02/10 18:33:52;;;;;;;64.00;6.30;;;;;;;;;;5072837;28;20457;-72
2022/02/10 19:07:16;;;;;;;64.15;6.28;;;;;;;;;;5068102;28;20452;-72
2022/02/10 19:09:45;;;;;;;66.25;6.60;;;;;;;;;;5073107;28;20212;-71
2022/02/10 19:12:17;;;;;;;63.90;7.43;;;;;;;;;;5072897;28;20684;-72
2022/02/10 19:14:51;;;;;;;67.97;6.73;;;;;;;;;;5073318;28;20966;-72
2022/02/10 19:17:19;;;;;;;63.28;6.05;;;;;;;;;;5072582;28;20463;-72
2022/02/10 19:19:47;;;;;;;64.32;7.80;;;;;;;;;;5073024;28;20287;-73
2022/02/10 19:22:14;;;;;;;64.77;7.83;;;;;;;;;;5072872;28;20236;-72
2022/02/10 19:24:42;;;;;;;65.93;7.78;;;;;;;;;;5072715;28;20554;-72
2022/02/10 19:27:09;;;;;;;63.65;7.22;;;;;;;;;;5072510;28;20301;-72
2022/02/10 19:29:38;;;;;;;66.55;7.72;;;;;;;;;;5072852;28;20214;-72
2022/02/10 19:32:05;;;;;;;67.90;8.60;;;;;;;;;;5072332;28;20746;-73
2022/02/10 19:34:35;;;;;;;63.60;7.10;;;;;;;;;;5072420;28;20467;-72
2022/02/10 19:37:04;;;;;;;62.35;6.53;;;;;;;;;;5072280;28;20213;-72
2022/02/10 19:39:31;;;;;;;61.90;5.47;;;;;;;;;;5072013;28;20230;-72
2022/02/10 19:41:58;;;;;;;63.00;5.68;;;;;;;;;;5072234;28;20244;-72
2022/02/10 19:44:26;;;;;;;61.85;5.45;;;;;;;;;;5072099;28;20605;-72
2022/02/10 19:46:57;;;;;;;62.15;6.00;;;;;;;;;;5072155;28;20211;-72
2022/02/10 19:49:25;;;;;;;61.67;5.68;;;;;;;;;;5071831;28;20208;-73
2022/02/10 19:51:52;;;;;;;61.40;5.85;;;;;;;;;;5071880;28;20209;-73
2022/02/10 19:54:26;;;;;;;62.67;5.70;;;;;;;;;;5072025;28;20340;-73
2022/02/10 19:56:54;;;;;;;62.60;5.60;;;;;;;;;;5071907;28;20251;-73
2022/02/10 19:59:24;;;;;;;61.42;5.80;;;;;;;;;;5071700;28;20313;-73
2022/02/10 20:01:52;;;;;;;63.35;6.25;;;;;;;;;;5072314;28;20611;-73
2022/02/10 20:04:20;;;;;;;65.40;5.95;;;;;;;;;;5071797;28;20231;-73
2022/02/10 20:06:47;;;;;;;62.70;6.43;;;;;;;;;;5071581;28;20217;-73
2022/02/10 20:09:14;;;;;;;64.45;6.30;;;;;;;;;;5071462;28;20475;-73
2022/02/10 20:11:43;;;;;;;68.38;6.80;;;;;;;;;;5071928;28;20206;-73
2022/02/10 20:14:11;;;;;;;64.13;6.40;;;;;;;;;;5071756;28;20746;-73
2022/02/10 20:16:38;;;;;;;64.83;5.90;;;;;;;;;;5071804;28;20692;-73
2022/02/10 20:19:08;;;;;;;64.60;6.70;;;;;;;;;;5071430;28;20921;-73
2022/02/10 20:21:35;;;;;;;64.75;6.57;;;;;;;;;;5071607;28;20302;-73
2022/02/10 20:24:02;;;;;;;64.03;6.05;;;;;;;;;;5071887;28;20336;-73
2022/02/10 20:26:29;;;;;;;63.00;5.35;;;;;;;;;;5072023;28;20216;-73
2022/02/10 20:28:58;;;;;;;65.30;7.22;;;;;;;;;;5071786;28;20309;-73
2022/02/10 20:31:25;;;;;;;69.93;6.18;;;;;;;;;;5071799;28;20292;-73
2022/02/10 20:33:53;;;;;;;63.28;5.70;;;;;;;;;;5071559;28;20229;-71
2022/02/10 20:36:20;;;;;;;65.88;7.07;;;;;;;;;;5071823;28;20209;-72
2022/02/10 20:38:50;;;;;;;64.72;6.30;;;;;;;;;;5071177;28;20810;-72
2022/02/10 20:41:19;;;;;;;63.55;6.28;;;;;;;;;;5071510;28;20753;-72
2022/02/10 20:43:48;;;;;;;63.97;6.10;;;;;;;;;;5071780;28;20263;-72
2022/02/10 20:46:18;;;;;;;63.70;7.30;;;;;;;;;;5071393;28;20217;-72
2022/02/10 20:48:46;;;;;;;65.17;6.60;;;;;;;;;;5071333;28;20198;-72
2022/02/10 20:51:15;;;;;;;64.43;7.40;;;;;;;;;;5071533;28;20901;-72
2022/02/10 20:53:44;;;;;;;70.40;7.13;;;;;;;;;;5071424;28;20226;-72
2022/02/10 20:56:13;;;;;;;62.67;5.85;;;;;;;;;;5071453;28;20220;-72
2022/02/10 20:58:41;;;;;;;65.30;7.13;;;;;;;;;;5070941;28;20668;-72
2022/02/10 21:01:12;;;;;;;64.20;6.75;;;;;;;;;;5071291;28;20611;-72
2022/02/10 21:03:41;;;;;;;63.25;6.95;;;;;;;;;;5071872;28;20666;-73
2022/02/10 21:06:15;;;;;;;65.95;6.93;;;;;;;;;;5075178;28;20852;-72
2022/02/10 21:08:50;;;;;;;67.32;7.40;;;;;;;;;;5074736;28;20203;-72
2022/02/10 21:11:18;;;;;;;63.72;6.95;;;;;;;;;;5075053;28;20221;-72
2022/02/10 21:13:45;;;;;;;64.30;6.95;;;;;;;;;;5074781;28;20234;-72
2022/02/10 21:16:13;;;;;;;65.22;7.93;;;;;;;;;;5074900;28;20201;-72
2022/02/10 21:18:43;;;;;;;62.47;7.05;;;;;;;;;;5074452;28;20222;-73
2022/02/10 21:21:14;;;;;;;64.43;7.60;;;;;;;;;;5075205;28;20572;-73
2022/02/10 21:23:49;;;;;;;63.15;6.18;;;;;;;;;;5074765;28;20230;-71
2022/02/10 21:26:19;;;;;;;68.90;7.28;;;;;;;;;;5075143;28;20211;-71
2022/02/10 21:28:48;;;;;;;64.75;7.53;;;;;;;;;;5074975;28;20625;-71
2022/02/10 21:31:15;;;;;;;68.22;7.70;;;;;;;;;;5074901;28;20271;-71
2022/02/10 21:33:58;;;;;;;65.90;8.20;;;;;;;;;;5074562;28;20262;-72
2022/02/10 21:39:33;;;;;;;84.72;16.10;;;;;;;;;;5074324;28;20257;-71
2022/02/10 21:47:47;;;;;;;84.50;17.52;;;;;;;;;;5074271;28;20572;-71
2022/02/10 21:56:28;;;;;;;92.18;18.73;;;;;;;;;;5073964;28;20191;-72
2022/02/10 21:59:27;;;;;;;82.38;17.08;;;;;;;;;;5073827;28;20314;-72
2022/02/10 22:10:22;;;;;;;74.22;11.90;;;;;;;;;;5073640;28;20600;-72
2022/02/10 22:18:37;;;;;;;74.05;10.40;;;;;;;;;;5073301;28;20299;-72
2022/02/10 22:21:06;;;;;;;69.47;10.85;;;;;;;;;;5073852;28;20606;-72
2022/02/10 22:23:37;;;;;;;70.30;12.40;;;;;;;;;;5073365;28;20229;-72
2022/02/10 22:26:07;;;;;;;71.95;12.93;;;;;;;;;;5073601;28;20547;-72
2022/02/10 22:28:45;;;;;;;69.32;8.90;;;;;;;;;;5073315;28;20203;-72
2022/02/10 22:31:24;;;;;;;71.05;10.50;;;;;;;;;;5073796;28;20216;-72
2022/02/10 22:34:03;;;;;;;69.45;9.27;;;;;;;;;;5073176;28;20232;-72
2022/02/10 22:36:30;;;;;;;64.85;8.63;;;;;;;;;;5073528;28;20296;-72
2022/02/10 22:39:01;;;;;;;66.57;8.98;;;;;;;;;;5072862;28;20223;-72
2022/02/10 22:41:29;;;;;;;72.35;11.68;;;;;;;;;;5073512;28;20580;-72
2022/02/10 22:43:56;;;;;;;77.72;13.93;;;;;;;;;;5073221;28;20236;-72
2022/02/10 22:46:23;;;;;;;78.20;14.50;;;;;;;;;;5073413;28;20251;-73
2022/02/10 22:48:51;;;;;;;74.97;14.05;;;;;;;;;;5073054;28;20444;-72
2022/02/10 22:51:19;;;;;;;71.10;11.50;;;;;;;;;;5072939;28;20297;-72
2022/02/10 22:53:46;;;;;;;70.68;11.85;;;;;;;;;;5073185;28;20265;-72
2022/02/10 22:56:16;;;;;;;68.45;10.52;;;;;;;;;;5073171;28;20201;-72
2022/02/10 22:58:43;;;;;;;72.55;11.52;;;;;;;;;;5072703;28;20236;-72
2022/02/10 23:01:11;;;;;;;71.00;11.35;;;;;;;;;;5072845;28;20205;-72
2022/02/10 23:03:40;;;;;;;73.90;11.15;;;;;;;;;;5072657;28;20789;-72
2022/02/10 23:06:08;;;;;;;73.72;13.45;;;;;;;;;;5072669;28;20213;-72
2022/02/10 23:08:35;;;;;;;74.65;11.48;;;;;;;;;;5072523;28;20198;-72
2022/02/10 23:11:03;;;;;;;70.45;11.05;;;;;;;;;;5072814;28;20201;-72
2022/02/10 23:13:33;;;;;;;74.45;11.32;;;;;;;;;;5072532;28;20256;-72
2022/02/10 23:16:01;;;;;;;68.68;9.85;;;;;;;;;;5075632;28;20616;-71
2022/02/10 23:18:29;;;;;;;66.67;8.97;;;;;;;;;;5077805;28;20213;-71
2022/02/10 23:20:57;;;;;;;70.28;10.75;;;;;;;;;;5082139;28;20508;-71
2022/02/10 23:23:25;;;;;;;71.85;10.15;;;;;;;;;;5083513;28;20284;-72
2022/02/10 23:25:54;;;;;;;68.97;10.23;;;;;;;;;;5080472;28;20210;-71
2022/02/10 23:28:24;;;;;;;68.72;9.25;;;;;;;;;;5085380;28;20272;-72
2022/02/10 23:30:53;;;;;;;68.57;10.60;;;;;;;;;;5072238;28;20296;-71
2022/02/10 23:33:24;;;;;;;68.93;10.20;;;;;;;;;;5072078;28;20313;-71
2022/02/10 23:38:55;;;;;;;69.03;10.23;;;;;;;;;;5071945;28;20213;-71
2022/02/10 23:41:55;;;;;;;66.47;9.00;;;;;;;;;;5072216;28;20894;-71
2022/02/10 23:44:25;;;;;;;67.80;10.02;;;;;;;;;;5072169;28;20552;-71
2022/02/10 23:46:54;;;;;;;72.22;10.63;;;;;;;;;;5072131;28;20220;-71
2022/02/10 23:49:24;;;;;;;68.28;9.88;;;;;;;;;;5071821;28;20214;-71
2022/02/10 23:51:55;;;;;;;68.50;10.15;;;;;;;;;;5071964;28;20213;-71
2022/02/10 23:54:23;;;;;;;69.57;9.50;;;;;;;;;;5072103;28;20598;-71
2022/02/10 23:56:55;;;;;;;68.05;9.60;;;;;;;;;;5072213;28;20210;-71
2022/02/10 23:59:34;;;;;;;67.50;8.52;;;;;;;;;;5071375;28;20317;-71
